Time;durP1;ratioP1;P1;durP2;ratioP2;P2;SDS_P1;SDS_P2;PMS_P1;PMS_P2;Temp;Humidity;BMP_temperature;BMP_pressure;BME280_temperature;BME280_humidity;BME280_pressure;Samples;Min_cycle;Max_cycle;Signal;HPM_P1;HPM_P2
2022/09/17 00:01:33;;;;;;;0.10;0.10;;;;;;;10.23;100.00;101224.50;5078657;28;20540;-76
2022/09/17 00:04:02;;;;;;;0.10;0.10;;;;;;;10.21;100.00;101221.06;5077293;28;20397;-76
2022/09/17 00:06:28;;;;;;;0.10;0.10;;;;;;;10.28;100.00;101224.19;5075609;28;20094;-78
2022/09/17 00:08:53;;;;;;;0.10;0.10;;;;;;;10.18;100.00;101227.53;5073951;28;20502;-78
2022/09/17 00:11:25;;;;;;;0.20;0.20;;;;;;;9.99;100.00;101213.66;5077045;28;20086;-77
2022/09/17 00:13:51;;;;;;;0.10;0.10;;;;;;;10.05;100.00;101222.16;5074945;28;20506;-78
2022/09/17 00:16:23;;;;;;;0.20;0.20;;;;;;;10.11;100.00;101236.97;5076030;28;20078;-79
2022/09/17 00:18:48;;;;;;;0.10;0.10;;;;;;;10.16;100.00;101237.50;5076000;28;20033;-76
2022/09/17 00:21:16;;;;;;;0.10;0.10;;;;;;;10.13;100.00;101248.44;5073125;28;20047;-78
2022/09/17 00:23:41;;;;;;;0.20;0.20;;;;;;;10.01;100.00;101217.97;5066072;28;20366;-79
2022/09/17 00:26:06;;;;;;;0.20;0.20;;;;;;;10.15;100.00;101242.97;5064880;28;20410;-80
2022/09/17 00:28:32;;;;;;;0.17;0.17;;;;;;;10.22;100.00;101257.69;5063120;28;20472;-77
2022/09/17 00:30:57;;;;;;;0.10;0.10;;;;;;;10.21;100.00;101245.22;5069863;28;20036;-79
2022/09/17 00:33:22;;;;;;;0.10;0.10;;;;;;;10.16;100.00;101234.81;5078254;28;20032;-78
2022/09/17 00:35:58;;;;;;;0.10;0.10;;;;;;;10.25;100.00;101256.59;5075218;28;20047;-78
2022/09/17 00:38:23;;;;;;;0.15;0.15;;;;;;;10.26;100.00;101253.81;5072958;28;20437;-79
2022/09/17 00:40:48;;;;;;;0.10;0.10;;;;;;;10.25;100.00;101261.97;5072827;28;20053;-78
2022/09/17 00:43:32;;;;;;;0.20;0.20;;;;;;;10.14;100.00;101251.97;5077078;28;20024;-79
2022/09/17 00:45:58;;;;;;;0.10;0.10;;;;;;;10.11;100.00;101253.06;5073250;28;20079;-80
2022/09/17 00:48:23;;;;;;;0.20;0.20;;;;;;;10.19;100.00;101266.81;5075563;28;20444;-79
2022/09/17 00:50:49;;;;;;;0.20;0.20;;;;;;;10.21;100.00;101262.16;5072534;28;20123;-77
2022/09/17 00:53:17;;;;;;;0.20;0.10;;;;;;;9.85;100.00;101210.13;5072432;28;20568;-80
2022/09/17 00:55:47;;;;;;;0.10;0.10;;;;;;;9.97;100.00;101250.47;5059219;28;20481;-80
2022/09/17 00:58:14;;;;;;;0.10;0.10;;;;;;;10.18;100.00;101261.53;5076379;28;20067;-80
2022/09/17 01:00:40;;;;;;;0.10;0.10;;;;;;;10.28;100.00;101275.16;5079355;28;20078;-79
2022/09/17 01:03:06;;;;;;;0.10;0.10;;;;;;;9.98;100.00;101234.28;5074041;28;20032;-79
2022/09/17 01:05:44;;;;;;;0.10;0.10;;;;;;;10.20;100.00;101264.97;5080333;28;20024;-79
2022/09/17 01:08:40;;;;;;;0.20;0.20;;;;;;;10.13;100.00;101269.91;5077040;28;20490;-77
2022/09/17 01:11:21;;;;;;;0.10;0.10;;;;;;;10.18;100.00;101264.22;5073983;28;20134;-76
2022/09/17 01:13:59;;;;;;;0.10;0.10;;;;;;;10.19;100.00;101274.00;5071584;28;20525;-77
2022/09/17 01:16:33;;;;;;;0.10;0.10;;;;;;;10.16;100.00;101268.84;5069112;28;20031;-77
2022/09/17 01:18:58;;;;;;;;;;;;;;;10.12;100.00;101268.19;5068100;28;20032;-77
2022/09/17 01:21:38;;;;;;;0.10;0.10;;;;;;;10.13;100.00;101280.66;5073720;28;19923;-77
2022/09/17 01:24:33;;;;;;;0.10;0.10;;;;;;;10.04;100.00;101287.50;5079398;28;20036;-79
2022/09/17 01:27:10;;;;;;;0.10;0.10;;;;;;;10.00;100.00;101288.69;5074152;28;20298;-76
2022/09/17 01:29:58;;;;;;;0.10;0.10;;;;;;;10.00;100.00;101279.75;5063167;28;20715;-76
2022/09/17 01:32:29;;;;;;;0.10;0.10;;;;;;;9.95;100.00;101285.44;5054303;28;20064;-76
2022/09/17 01:35:05;;;;;;;0.10;0.10;;;;;;;9.93;100.00;101287.38;5062790;28;20063;-77
2022/09/17 01:37:45;;;;;;;0.20;0.20;;;;;;;9.96;100.00;101292.53;5051854;28;20264;-76
2022/09/17 01:40:26;;;;;;;0.10;0.10;;;;;;;9.92;100.00;101300.91;5065475;28;20042;-77
2022/09/17 01:43:13;;;;;;;0.10;0.10;;;;;;;9.94;100.00;101294.47;5063464;28;20028;-78
2022/09/17 01:45:43;;;;;;;0.10;0.10;;;;;;;9.93;100.00;101290.06;5070010;28;20024;-77
2022/09/17 01:48:12;;;;;;;0.10;0.10;;;;;;;10.03;100.00;101295.66;5076163;28;20028;-75
2022/09/17 01:50:45;;;;;;;0.10;0.10;;;;;;;10.03;100.00;101285.78;5076915;28;20028;-78
2022/09/17 01:53:11;;;;;;;0.13;0.13;;;;;;;9.98;100.00;101287.94;5072893;28;20413;-79
2022/09/17 01:55:38;;;;;;;0.10;0.10;;;;;;;9.94;100.00;101282.84;5076053;28;20031;-77
2022/09/17 01:58:25;;;;;;;0.20;0.20;;;;;;;9.94;100.00;101296.25;5079093;28;20035;-78
2022/09/17 02:00:56;;;;;;;0.10;0.10;;;;;;;9.97;100.00;101296.94;5075475;28;20032;-76
2022/09/17 02:03:26;;;;;;;0.13;0.13;;;;;;;9.81;100.00;101283.69;5078747;28;20020;-74
2022/09/17 02:05:56;;;;;;;0.17;0.17;;;;;;;9.97;100.00;101302.28;5065670;28;20071;-78
2022/09/17 02:08:33;;;;;;;0.10;0.10;;;;;;;10.00;100.00;101299.41;5077167;28;20031;-77
2022/09/17 02:11:05;;;;;;;0.10;0.10;;;;;;;9.78;100.00;101267.81;5079789;28;20090;-79
2022/09/17 02:13:40;;;;;;;0.13;0.13;;;;;;;9.77;100.00;101282.19;5072697;28;20025;-81
2022/09/17 02:16:11;;;;;;;0.10;0.10;;;;;;;9.80;100.00;101294.53;5076434;28;20028;-77
2022/09/17 02:18:44;;;;;;;0.10;0.10;;;;;;;9.56;100.00;101269.25;5075533;28;20032;-77
2022/09/17 02:21:22;;;;;;;0.13;0.13;;;;;;;9.77;100.00;101292.06;5077094;28;20439;-78
2022/09/17 02:24:07;;;;;;;0.10;0.10;;;;;;;9.80;100.00;101313.31;5077107;28;20078;-79
2022/09/17 02:26:34;;;;;;;0.10;0.10;;;;;;;9.87;100.00;101310.13;5075308;28;20028;-77
2022/09/17 02:29:06;;;;;;;0.10;0.10;;;;;;;9.69;100.00;101281.81;5070136;28;20039;-78
2022/09/17 02:31:32;;;;;;;0.10;0.10;;;;;;;9.71;100.00;101280.78;5071539;28;20359;-78
2022/09/17 02:34:00;;;;;;;0.10;0.10;;;;;;;9.84;100.00;101304.94;5076829;28;20035;-76
2022/09/17 02:36:26;;;;;;;0.15;0.15;;;;;;;9.83;100.00;101316.63;5074473;28;20065;-78
2022/09/17 02:38:59;;;;;;;0.20;0.10;;;;;;;9.66;100.00;101268.66;5075607;28;20031;-77
2022/09/17 02:41:31;;;;;;;0.20;0.20;;;;;;;9.92;100.00;101317.00;5075526;28;20023;-79
2022/09/17 02:44:29;;;;;;;0.10;0.10;;;;;;;9.87;100.00;101319.97;5071763;28;20024;-76
2022/09/17 02:47:10;;;;;;;0.10;0.10;;;;;;;9.87;100.00;101322.66;5067985;28;20036;-76
2022/09/17 02:49:57;;;;;;;0.05;0.05;;;;;;;9.93;100.00;101321.41;5078208;28;20036;-76
2022/09/17 02:52:45;;;;;;;0.10;0.10;;;;;;;9.97;100.00;101323.75;5070355;28;20055;-77
2022/09/17 02:55:28;;;;;;;0.10;0.10;;;;;;;10.02;100.00;101318.94;5077252;28;20676;-77
2022/09/17 02:58:15;;;;;;;0.20;0.20;;;;;;;9.95;100.00;101300.66;5070333;28;20497;-79
2022/09/17 03:00:41;;;;;;;0.10;0.10;;;;;;;10.05;99.94;101318.75;5073568;28;20054;-78
2022/09/17 03:03:28;;;;;;;0.10;0.10;;;;;;;10.03;99.46;101322.47;5074698;28;20028;-78
2022/09/17 03:05:53;;;;;;;0.10;0.10;;;;;;;10.04;99.32;101314.34;5076477;28;20028;-77
2022/09/17 03:08:20;;;;;;;0.10;0.10;;;;;;;10.03;99.28;101323.34;5072437;28;20050;-77
2022/09/17 03:10:48;;;;;;;0.10;0.10;;;;;;;10.02;99.32;101321.63;5066187;28;20089;-78
2022/09/17 03:13:13;;;;;;;0.17;0.17;;;;;;;10.03;99.19;101315.31;5070753;28;20028;-78
2022/09/17 03:15:39;;;;;;;0.10;0.10;;;;;;;10.04;99.21;101321.50;5069484;28;20024;-78
2022/09/17 03:18:04;;;;;;;0.10;0.10;;;;;;;9.99;99.60;101312.91;5071056;28;20074;-78
2022/09/17 03:20:29;;;;;;;0.10;0.10;;;;;;;9.88;100.00;101313.63;5077168;28;20051;-76
2022/09/17 03:22:55;;;;;;;0.10;0.10;;;;;;;9.79;100.00;101314.28;5075555;28;20039;-78
2022/09/17 03:25:20;;;;;;;0.10;0.10;;;;;;;9.72;100.00;101316.50;5077267;28;20135;-76
2022/09/17 03:27:47;;;;;;;0.10;0.10;;;;;;;9.67;100.00;101311.44;5072688;28;20056;-72
2022/09/17 03:30:12;;;;;;;0.10;0.10;;;;;;;9.71;100.00;101314.75;5069922;28;20029;-77
2022/09/17 03:32:37;;;;;;;0.10;0.10;;;;;;;9.70;100.00;101302.31;5074252;28;20031;-77
2022/09/17 03:35:03;;;;;;;0.10;0.10;;;;;;;9.73;100.00;101308.34;5072195;28;20541;-77
2022/09/17 03:37:28;;;;;;;0.10;0.10;;;;;;;9.78;100.00;101313.41;5072854;28;20036;-79
2022/09/17 03:39:53;;;;;;;0.10;0.10;;;;;;;9.79;100.00;101300.88;5079741;28;20462;-78
2022/09/17 03:42:19;;;;;;;0.10;0.10;;;;;;;9.83;100.00;101297.00;5079718;28;20142;-79
2022/09/17 03:44:44;;;;;;;0.10;0.10;;;;;;;9.86;99.85;101294.97;5076934;28;20020;-78
2022/09/17 03:47:11;;;;;;;0.10;0.10;;;;;;;9.96;99.05;101297.91;5066857;28;20036;-76
2022/09/17 03:49:36;;;;;;;0.20;0.20;;;;;;;10.07;98.68;101305.22;5071746;28;20064;-76
2022/09/17 03:52:02;;;;;;;0.10;0.10;;;;;;;10.00;98.10;101282.44;5063376;28;20024;-75
2022/09/17 03:54:27;;;;;;;0.20;0.20;;;;;;;10.02;98.11;101291.25;5077126;28;20513;-75
2022/09/17 03:56:52;;;;;;;0.15;0.15;;;;;;;10.17;98.09;101316.16;5073040;28;20077;-75
2022/09/17 03:59:17;;;;;;;0.10;0.10;;;;;;;10.18;97.69;101310.72;5079109;28;20047;-76
2022/09/17 04:01:43;;;;;;;0.10;0.10;;;;;;;10.06;97.63;101290.91;5072508;28;20131;-77
2022/09/17 04:04:08;;;;;;;0.10;0.10;;;;;;;10.25;97.24;101304.91;5080102;28;20473;-76
2022/09/17 04:06:33;;;;;;;0.20;0.20;;;;;;;10.31;96.88;101309.84;5073264;28;20024;-77
2022/09/17 04:08:59;;;;;;;0.10;0.10;;;;;;;10.21;96.50;101302.41;5071632;28;20060;-74
2022/09/17 04:11:25;;;;;;;0.10;0.10;;;;;;;10.27;96.21;101305.66;5070624;28;20020;-78
2022/09/17 04:13:51;;;;;;;0.10;0.10;;;;;;;10.19;96.13;101320.47;5072173;28;20478;-77
2022/09/17 04:16:16;;;;;;;0.10;0.10;;;;;;;10.17;96.17;101321.53;5071413;28;20107;-76
2022/09/17 04:18:41;;;;;;;0.10;0.10;;;;;;;10.17;95.76;101319.72;5070983;28;20430;-77
2022/09/17 04:21:07;;;;;;;0.15;0.15;;;;;;;10.19;95.99;101339.25;5070011;28;20708;-76
2022/09/17 04:23:32;;;;;;;0.10;0.10;;;;;;;9.99;95.64;101303.06;5067762;28;20048;-79
2022/09/17 04:25:57;;;;;;;0.10;0.10;;;;;;;10.06;96.09;101333.84;5067955;28;20069;-78
2022/09/17 04:28:24;;;;;;;0.10;0.10;;;;;;;10.04;95.96;101334.94;5068863;28;20032;-77
2022/09/17 04:30:49;;;;;;;0.10;0.10;;;;;;;9.78;96.14;101304.50;5071971;28;20031;-77
2022/09/17 04:33:14;;;;;;;0.10;0.10;;;;;;;9.95;96.19;101339.09;5075700;28;20020;-77
2022/09/17 04:35:40;;;;;;;0.10;0.10;;;;;;;9.88;96.22;101327.94;5078436;28;20031;-77
2022/09/17 04:38:05;;;;;;;0.10;0.10;;;;;;;9.86;96.54;101343.25;5075017;28;20060;-79
2022/09/17 04:40:30;;;;;;;0.10;0.10;;;;;;;9.80;96.83;101348.19;5061626;28;20394;-77
2022/09/17 04:42:58;;;;;;;0.10;0.10;;;;;;;9.85;96.66;101346.91;5084209;28;20890;-77
2022/09/17 04:45:23;;;;;;;0.10;0.10;;;;;;;9.77;96.78;101353.75;5082270;28;20409;-79
2022/09/17 04:47:51;;;;;;;0.10;0.10;;;;;;;9.71;97.21;101346.94;5073073;28;20027;-76
2022/09/17 04:50:17;;;;;;;0.10;0.10;;;;;;;9.67;97.38;101345.41;5078015;28;20028;-77
2022/09/17 04:52:44;;;;;;;0.10;0.10;;;;;;;9.66;97.17;101349.09;5074694;28;20043;-80
2022/09/17 04:55:09;;;;;;;0.10;0.10;;;;;;;9.65;97.37;101334.81;5080984;28;20356;-78
2022/09/17 04:57:34;;;;;;;0.10;0.10;;;;;;;9.59;98.11;101336.09;5083773;28;20541;-78
2022/09/17 05:00:00;;;;;;;0.10;0.10;;;;;;;9.57;98.54;101331.75;5073605;28;20032;-78
2022/09/17 05:02:25;;;;;;;0.10;0.10;;;;;;;9.57;98.51;101329.97;5075992;28;20024;-72
2022/09/17 05:04:50;;;;;;;0.10;0.10;;;;;;;9.43;98.37;101321.94;5075160;28;20065;-77
2022/09/17 05:07:16;;;;;;;0.10;0.10;;;;;;;9.36;98.78;101313.47;5076271;28;20107;-78
2022/09/17 05:09:41;;;;;;;0.10;0.10;;;;;;;9.43;98.64;101322.81;5079778;28;20024;-76
2022/09/17 05:12:07;;;;;;;0.10;0.10;;;;;;;9.34;98.16;101306.50;5076619;28;20943;-77
2022/09/17 05:14:32;;;;;;;0.10;0.10;;;;;;;9.48;98.04;101330.56;5072757;28;20067;-77
2022/09/17 05:16:57;;;;;;;0.10;0.10;;;;;;;9.54;98.66;101350.72;5073701;28;20032;-76
2022/09/17 05:19:22;;;;;;;0.10;0.10;;;;;;;9.54;98.39;101348.03;5079751;28;20059;-80
2022/09/17 05:21:48;;;;;;;0.10;0.10;;;;;;;9.47;98.22;101342.22;5083422;28;20486;-76
2022/09/17 05:24:13;;;;;;;0.10;0.10;;;;;;;9.45;98.43;101341.47;5086899;28;20039;-75
2022/09/17 05:26:39;;;;;;;0.10;0.10;;;;;;;9.51;98.16;101359.00;5074912;28;20068;-74
2022/09/17 05:29:04;;;;;;;0.10;0.10;;;;;;;9.27;98.52;101311.41;5083045;28;20104;-78
2022/09/17 05:31:30;;;;;;;0.20;0.20;;;;;;;9.50;98.38;101362.63;5076929;28;20060;-72
2022/09/17 05:33:57;;;;;;;0.10;0.10;;;;;;;9.56;98.20;101357.72;5078204;28;20123;-76
2022/09/17 05:36:22;;;;;;;0.10;0.10;;;;;;;9.54;97.85;101369.50;5080663;28;20024;-74
2022/09/17 05:38:47;;;;;;;0.10;0.10;;;;;;;9.55;98.13;101364.03;5079866;28;20343;-73
2022/09/17 05:41:13;;;;;;;0.10;0.10;;;;;;;9.51;98.18;101365.19;5077296;28;20040;-74
2022/09/17 05:43:38;;;;;;;0.10;0.10;;;;;;;9.39;98.77;101357.97;5072209;28;20052;-76
2022/09/17 05:46:05;;;;;;;0.20;0.20;;;;;;;9.45;99.29;101376.31;5071573;28;20028;-71
2022/09/17 05:48:30;;;;;;;0.10;0.10;;;;;;;9.50;98.43;101365.31;5072643;28;20719;-74
2022/09/17 05:50:56;;;;;;;0.10;0.10;;;;;;;9.57;98.75;101375.53;5074018;28;20032;-72
2022/09/17 05:53:21;;;;;;;0.10;0.10;;;;;;;9.57;98.67;101391.63;5070619;28;20020;-74
2022/09/17 05:55:46;;;;;;;0.10;0.10;;;;;;;9.64;98.61;101381.34;5078294;28;20032;-75
2022/09/17 05:58:17;;;;;;;0.10;0.10;;;;;;;9.64;98.32;101386.72;5078661;28;20134;-72
2022/09/17 06:00:45;;;;;;;0.10;0.10;;;;;;;9.63;98.79;101390.34;5078144;28;20070;-73
2022/09/17 06:03:12;;;;;;;0.10;0.10;;;;;;;9.44;98.50;101347.78;5075746;28;20069;-74
2022/09/17 06:05:37;;;;;;;0.10;0.10;;;;;;;9.60;97.91;101359.25;5070151;28;20393;-77
2022/09/17 06:08:02;;;;;;;0.10;0.10;;;;;;;9.91;97.07;101388.53;5075405;28;20028;-72
2022/09/17 06:10:28;;;;;;;0.10;0.10;;;;;;;9.98;96.78;101397.03;5080910;28;20039;-72
2022/09/17 06:12:59;;;;;;;0.10;0.10;;;;;;;10.01;96.10;101391.47;5082419;28;20043;-71
2022/09/17 06:15:26;;;;;;;0.10;0.10;;;;;;;10.08;96.01;101398.16;5075128;28;20028;-72
2022/09/17 06:17:51;;;;;;;0.10;0.10;;;;;;;10.01;95.64;101391.47;5069167;28;20115;-71
2022/09/17 06:20:17;;;;;;;0.10;0.10;;;;;;;10.15;95.78;101399.47;5071829;28;20027;-72
2022/09/17 06:22:43;;;;;;;0.10;0.10;;;;;;;10.00;95.48;101376.34;5065455;28;20036;-72
2022/09/17 06:25:08;;;;;;;0.10;0.10;;;;;;;10.35;94.91;101405.31;5070526;28;20398;-72
2022/09/17 06:27:34;;;;;;;0.10;0.10;;;;;;;10.50;93.54;101408.81;5069305;28;20059;-72
2022/09/17 06:30:00;;;;;;;0.10;0.10;;;;;;;10.62;94.20;101412.47;5072078;28;20381;-72
2022/09/17 06:32:26;;;;;;;0.10;0.10;;;;;;;10.77;93.70;101408.69;5074510;28;20054;-75
2022/09/17 06:34:51;;;;;;;0.10;0.10;;;;;;;10.86;92.64;101409.03;5064366;28;20470;-76
2022/09/17 06:37:17;;;;;;;0.10;0.10;;;;;;;10.55;91.54;101373.56;5077410;28;20078;-74
2022/09/17 06:39:43;;;;;;;0.10;0.10;;;;;;;10.91;91.24;101418.47;5072426;28;20516;-78
2022/09/17 06:42:08;;;;;;;0.13;0.13;;;;;;;10.87;89.91;101416.97;5076140;28;20031;-72
2022/09/17 06:44:34;;;;;;;0.10;0.10;;;;;;;10.98;90.49;101413.56;5072037;28;20043;-72
2022/09/17 06:46:59;;;;;;;0.10;0.10;;;;;;;11.15;89.26;101406.97;5076384;28;20060;-71
2022/09/17 06:49:24;;;;;;;0.10;0.10;;;;;;;11.25;88.48;101412.56;5071561;28;20024;-76
2022/09/17 06:51:50;;;;;;;0.10;0.10;;;;;;;11.33;88.60;101396.72;5068258;28;20028;-74
2022/09/17 06:54:15;;;;;;;0.10;0.10;;;;;;;11.33;88.34;101403.94;5067832;28;20039;-72
2022/09/17 06:56:41;;;;;;;0.10;0.10;;;;;;;11.32;87.29;101412.97;5074614;28;20525;-74
2022/09/17 06:59:06;;;;;;;0.10;0.10;;;;;;;11.36;86.10;101398.34;5069352;28;20036;-77
2022/09/17 07:01:31;;;;;;;0.10;0.10;;;;;;;11.46;86.33;101395.84;5069584;28;20031;-76
2022/09/17 07:03:57;;;;;;;0.13;0.13;;;;;;;11.46;86.55;101406.59;5069803;28;20447;-76
2022/09/17 07:06:22;;;;;;;0.03;0.03;;;;;;;11.22;85.89;101373.31;5068893;28;20043;-75
2022/09/17 07:08:47;;;;;;;0.10;0.10;;;;;;;11.48;84.77;101401.97;5075633;28;20035;-75
2022/09/17 07:11:14;;;;;;;0.08;0.08;;;;;;;11.52;84.50;101403.47;5078740;28;20024;-72
2022/09/17 07:13:40;;;;;;;0.10;0.10;;;;;;;11.64;84.79;101409.78;5080549;28;20489;-71
2022/09/17 07:16:05;;;;;;;0.10;0.10;;;;;;;11.68;83.46;101414.81;5073244;28;20115;-73
2022/09/17 07:18:31;;;;;;;0.10;0.10;;;;;;;11.69;84.58;101411.16;5069441;28;20462;-70
2022/09/17 07:20:58;;;;;;;0.10;0.10;;;;;;;11.79;84.47;101413.16;5069438;28;20031;-77
2022/09/17 07:23:25;;;;;;;0.10;0.10;;;;;;;11.75;82.72;101403.63;5069005;28;20021;-78
2022/09/17 07:25:55;;;;;;;0.10;0.10;;;;;;;11.91;83.83;101420.31;5067560;28;20162;-73
2022/09/17 07:28:21;;;;;;;0.10;0.10;;;;;;;11.99;83.32;101404.50;5072439;28;20070;-77
2022/09/17 07:30:47;;;;;;;0.10;0.10;;;;;;;12.10;81.43;101413.59;5073798;28;20028;-74
2022/09/17 07:33:15;;;;;;;0.00;0.00;;;;;;;12.24;82.33;101413.44;5075665;28;20024;-74
2022/09/17 07:35:40;;;;;;;0.10;0.10;;;;;;;12.37;80.72;101407.09;5064773;28;20032;-78
2022/09/17 07:38:05;;;;;;;0.05;0.05;;;;;;;12.51;80.85;101409.59;5075662;28;20493;-73
2022/09/17 07:40:31;;;;;;;0.00;0.00;;;;;;;12.71;80.26;101416.09;5074079;28;20036;-76
2022/09/17 07:42:57;;;;;;;0.00;0.00;;;;;;;12.83;79.25;101408.94;5066699;28;20023;-77
2022/09/17 07:45:23;;;;;;;0.10;0.10;;;;;;;12.84;77.80;101417.84;5069750;28;20016;-76
2022/09/17 07:47:48;;;;;;;0.10;0.10;;;;;;;12.74;78.29;101417.72;5082182;28;20081;-76
2022/09/17 07:50:13;;;;;;;0.05;0.05;;;;;;;12.63;78.66;101413.19;5079149;28;20028;-76
2022/09/17 07:52:47;;;;;;;0.10;0.10;;;;;;;12.77;79.73;101417.50;5077167;28;20174;-75
2022/09/17 07:55:13;;;;;;;0.00;0.00;;;;;;;12.89;79.17;101413.81;5070363;28;20044;-73
2022/09/17 07:57:39;;;;;;;0.10;0.10;;;;;;;13.08;77.68;101414.19;5075294;28;20387;-76
2022/09/17 08:00:05;;;;;;;0.10;0.10;;;;;;;13.34;78.15;101417.53;5081113;28;20038;-75
2022/09/17 08:02:31;;;;;;;0.08;0.08;;;;;;;13.40;76.20;101408.06;5076116;28;20047;-75
2022/09/17 08:04:56;;;;;;;0.05;0.05;;;;;;;13.52;75.64;101409.78;5083334;28;20481;-72
2022/09/17 08:07:21;;;;;;;0.10;0.10;;;;;;;13.56;76.16;101407.72;5085361;28;20381;-75
2022/09/17 08:09:47;;;;;;;0.10;0.10;;;;;;;13.67;75.81;101426.56;5083549;28;20035;-73
2022/09/17 08:12:12;;;;;;;0.10;0.10;;;;;;;13.46;75.45;101415.72;5077429;28;20099;-79
2022/09/17 08:14:37;;;;;;;0.00;0.00;;;;;;;13.51;75.76;101418.88;5077026;28;20106;-74
2022/09/17 08:17:06;;;;;;;0.10;0.10;;;;;;;13.61;74.13;101424.41;5089604;28;20029;-77
2022/09/17 08:19:32;;;;;;;0.08;0.08;;;;;;;13.65;74.44;101420.44;5084201;28;20016;-76
2022/09/17 08:21:57;;;;;;;0.00;0.00;;;;;;;13.66;74.05;101403.25;5074034;28;20028;-77
2022/09/17 08:24:22;;;;;;;0.08;0.08;;;;;;;13.86;75.80;101423.22;5079791;28;20024;-73
2022/09/17 08:26:48;;;;;;;0.10;0.10;;;;;;;13.89;73.89;101433.78;5072146;28;20112;-74
2022/09/17 08:29:13;;;;;;;0.10;0.10;;;;;;;13.93;72.74;101419.03;5082973;28;20487;-70
2022/09/17 08:31:38;;;;;;;0.10;0.10;;;;;;;13.86;73.42;101423.22;5075375;28;20027;-77
2022/09/17 08:34:08;;;;;;;0.10;0.10;;;;;;;13.97;73.49;101432.28;5079335;28;20383;-73
2022/09/17 08:36:33;;;;;;;0.10;0.10;;;;;;;14.00;71.38;101432.03;5078639;28;20095;-76
2022/09/17 08:38:59;;;;;;;0.10;0.10;;;;;;;13.90;72.43;101432.78;5079120;28;20535;-71
2022/09/17 08:41:32;;;;;;;0.10;0.10;;;;;;;13.91;73.53;101430.94;5083957;28;20051;-75
2022/09/17 08:44:03;;;;;;;0.10;0.10;;;;;;;13.78;70.51;101423.84;5083280;28;20126;-72
2022/09/17 08:46:39;;;;;;;0.00;0.00;;;;;;;14.06;73.81;101435.06;5083871;28;20030;-73
2022/09/17 08:49:19;;;;;;;0.10;0.10;;;;;;;14.20;74.87;101424.94;5078216;28;20033;-74
2022/09/17 08:51:52;;;;;;;0.00;0.00;;;;;;;14.44;75.42;101424.72;5074255;28;20035;-76
2022/09/17 08:54:49;;;;;;;0.10;0.10;;;;;;;14.27;72.38;101420.75;5082277;28;20021;-77
2022/09/17 08:57:26;;;;;;;0.10;0.10;;;;;;;14.33;69.40;101420.22;5079254;28;20040;-74
2022/09/17 09:00:08;;;;;;;0.10;0.10;;;;;;;14.53;70.08;101420.38;5076589;28;20038;-74
2022/09/17 09:02:55;;;;;;;0.10;0.10;;;;;;;14.94;72.33;101429.50;5075815;28;20101;-74
2022/09/17 09:05:25;;;;;;;0.00;0.00;;;;;;;14.95;70.58;101395.19;5074872;28;20036;-74
2022/09/17 09:07:55;;;;;;;0.10;0.10;;;;;;;15.18;72.12;101427.47;5079635;28;20066;-76
2022/09/17 09:10:24;;;;;;;0.03;0.03;;;;;;;15.22;69.30;101423.50;5077220;28;20027;-77
2022/09/17 09:12:51;;;;;;;0.10;0.10;;;;;;;15.25;71.18;101397.03;5083397;28;20536;-76
2022/09/17 09:15:35;;;;;;;0.10;0.10;;;;;;;15.56;68.39;101426.75;5079265;28;20028;-75
2022/09/17 09:18:08;;;;;;;0.10;0.10;;;;;;;15.56;66.75;101429.47;5077434;28;20023;-75
2022/09/17 09:20:39;;;;;;;0.00;0.00;;;;;;;15.75;68.31;101425.94;5076843;28;20052;-78
2022/09/17 09:23:16;;;;;;;0.10;0.10;;;;;;;15.80;65.15;101409.28;5077291;28;20028;-75
2022/09/17 09:26:12;;;;;;;0.13;0.10;;;;;;;15.88;66.08;101420.31;5082532;28;20062;-77
2022/09/17 09:28:41;;;;;;;0.10;0.10;;;;;;;15.85;65.08;101420.53;5082472;28;20428;-72
2022/09/17 09:31:31;;;;;;;0.00;0.00;;;;;;;15.62;66.90;101422.66;5078772;28;20554;-76
2022/09/17 09:33:56;;;;;;;0.00;0.00;;;;;;;15.51;66.10;101418.19;5080055;28;20032;-73
2022/09/17 09:36:22;;;;;;;0.00;0.00;;;;;;;15.35;65.04;101424.13;5078192;28;20480;-71
2022/09/17 09:38:52;;;;;;;0.00;0.00;;;;;;;15.01;66.18;101427.09;5074005;28;20039;-74
2022/09/17 09:41:39;;;;;;;0.05;0.05;;;;;;;14.52;72.45;101442.97;5074200;28;20087;-74
2022/09/17 09:44:13;;;;;;;0.08;0.08;;;;;;;13.61;79.20;101473.81;5075664;28;20111;-78
2022/09/17 09:47:00;;;;;;;;;;;;;;;12.95;88.02;101490.66;5084656;28;20406;-72
2022/09/17 09:49:48;;;;;;;0.10;0.10;;;;;;;12.34;89.31;101490.78;5075871;28;19969;-71
2022/09/17 09:52:47;;;;;;;0.00;0.00;;;;;;;11.89;93.09;101481.47;5075097;28;20053;-72
2022/09/17 09:55:28;;;;;;;0.10;0.10;;;;;;;11.74;94.59;101466.47;5079694;28;20032;-72
2022/09/17 09:58:21;;;;;;;0.10;0.10;;;;;;;11.73;97.01;101459.34;5077021;28;20466;-72
2022/09/17 10:00:46;;;;;;;0.00;0.00;;;;;;;11.74;99.42;101445.78;5079285;28;20068;-72
2022/09/17 10:03:22;;;;;;;0.08;0.08;;;;;;;12.37;100.00;101455.56;5081876;28;20135;-73
2022/09/17 10:05:57;;;;;;;0.10;0.10;;;;;;;12.52;96.79;101432.88;5069597;28;21048;-73
2022/09/17 10:08:24;;;;;;;0.10;0.10;;;;;;;13.06;95.41;101452.06;5080358;28;20473;-73
2022/09/17 10:10:57;;;;;;;0.10;0.10;;;;;;;13.56;95.27;101445.50;5078857;28;20027;-73
2022/09/17 10:13:23;;;;;;;0.00;0.00;;;;;;;13.71;91.30;101425.34;5077964;28;20026;-75
2022/09/17 10:15:48;;;;;;;0.10;0.10;;;;;;;14.09;86.01;101448.31;5077217;28;20035;-79
2022/09/17 10:18:16;;;;;;;0.00;0.00;;;;;;;14.50;85.92;101440.41;5072802;28;20496;-74
2022/09/17 10:20:48;;;;;;;0.00;0.00;;;;;;;15.08;86.10;101435.53;5076053;28;20032;-76
2022/09/17 10:23:14;;;;;;;0.10;0.10;;;;;;;15.19;77.63;101423.75;5078749;28;20050;-74
2022/09/17 10:25:42;;;;;;;0.10;0.10;;;;;;;15.35;74.92;101428.69;5076383;28;20028;-74
2022/09/17 10:28:32;;;;;;;0.00;0.00;;;;;;;15.42;74.06;101427.97;5075795;28;20566;-76
2022/09/17 10:31:07;;;;;;;0.00;0.00;;;;;;;15.43;74.87;101435.09;5070932;28;20397;-79
2022/09/17 10:33:33;;;;;;;0.10;0.10;;;;;;;15.49;74.05;101422.03;5059614;28;20408;-77
2022/09/17 10:36:07;;;;;;;0.10;0.10;;;;;;;15.56;70.94;101418.63;5073245;28;20038;-78
2022/09/17 10:38:40;;;;;;;0.10;0.10;;;;;;;16.09;68.39;101438.28;5078278;28;20035;-70
2022/09/17 10:41:12;;;;;;;0.00;0.00;;;;;;;16.35;68.22;101432.28;5073773;28;20485;-72
2022/09/17 10:43:37;;;;;;;0.10;0.10;;;;;;;16.54;67.08;101427.88;5081028;28;20074;-74
2022/09/17 10:46:08;;;;;;;0.03;0.03;;;;;;;17.09;67.36;101425.34;5075985;28;20028;-72
2022/09/17 10:48:39;;;;;;;0.00;0.00;;;;;;;17.50;66.46;101419.59;5074401;28;20023;-74
2022/09/17 10:51:05;;;;;;;0.08;0.08;;;;;;;17.88;64.19;101408.63;5075281;28;20012;-77
2022/09/17 10:53:50;;;;;;;0.10;0.10;;;;;;;17.83;62.49;101430.00;5072585;28;20070;-76
2022/09/17 10:56:22;;;;;;;0.00;0.00;;;;;;;17.06;59.07;101428.38;5077944;28;20042;-74
2022/09/17 10:59:02;;;;;;;0.00;0.00;;;;;;;16.78;62.72;101432.81;5083191;28;20039;-74
2022/09/17 11:01:59;;;;;;;0.00;0.00;;;;;;;16.78;62.52;101422.84;5072385;28;20394;-75
2022/09/17 11:04:30;;;;;;;0.00;0.00;;;;;;;17.20;63.89;101428.88;5073823;28;20032;-75
2022/09/17 11:07:14;;;;;;;0.00;0.00;;;;;;;17.89;61.08;101414.94;5077086;28;20029;-74
2022/09/17 11:09:54;;;;;;;0.08;0.08;;;;;;;18.44;59.77;101412.09;5075777;28;20118;-74
2022/09/17 11:12:30;;;;;;;0.10;0.10;;;;;;;18.04;58.96;101409.84;5077283;28;20024;-73
2022/09/17 11:15:16;;;;;;;0.00;0.00;;;;;;;17.47;60.01;101408.19;5063435;28;20119;-75
2022/09/17 11:18:13;;;;;;;0.00;0.00;;;;;;;17.07;60.77;101412.94;5075521;28;20082;-77
2022/09/17 11:20:59;;;;;;;0.00;0.00;;;;;;;16.06;66.33;101416.06;5073408;28;20123;-80
2022/09/17 11:23:34;;;;;;;0.00;0.00;;;;;;;15.29;69.32;101427.38;5072220;28;20035;-81
2022/09/17 11:26:30;;;;;;;0.00;0.00;;;;;;;14.81;72.06;101418.03;5073320;28;20039;-76
2022/09/17 11:29:09;;;;;;;0.05;0.05;;;;;;;14.95;72.12;101408.72;5076256;28;20067;-76
2022/09/17 11:31:59;;;;;;;0.10;0.10;;;;;;;16.54;70.40;101412.47;5063521;28;20025;-78
2022/09/17 11:34:41;;;;;;;0.10;0.10;;;;;;;17.86;66.12;101405.25;5074893;28;20069;-76
2022/09/17 11:37:22;;;;;;;0.03;0.03;;;;;;;19.40;62.66;101393.13;5068463;28;20169;-76
2022/09/17 11:39:55;;;;;;;0.10;0.10;;;;;;;20.43;56.50;101396.53;5073768;28;20027;-79
2022/09/17 11:42:24;;;;;;;0.10;0.10;;;;;;;20.95;53.16;101391.69;5075157;28;20064;-78